Time;durP1;ratioP1;P1;durP2;ratioP2;P2;SDS_P1;SDS_P2;PMS_P1;PMS_P2;Temp;Humidity;BMP_temperature;BMP_pressure;BME280_temperature;BME280_humidity;BME280_pressure;Samples;Min_cycle;Max_cycle;Signal;HPM_P1;HPM_P2
2023/10/08 00:00:49;;;;;;;3.57;2.90;;;16.80;99.90;;;;;;5096806;28;20218;-72
2023/10/08 00:03:15;;;;;;;5.70;3.47;;;16.80;99.90;;;;;;5096916;28;20222;-72
2023/10/08 00:05:41;;;;;;;3.93;2.90;;;16.80;99.90;;;;;;5096808;28;20192;-72
2023/10/08 00:08:11;;;;;;;5.13;3.33;;;16.70;99.90;;;;;;5096632;28;20248;-72
2023/10/08 00:10:41;;;;;;;4.50;3.17;;;16.70;99.90;;;;;;5096829;28;20662;-71
2023/10/08 00:13:10;;;;;;;4.47;3.70;;;16.70;99.90;;;;;;5096371;28;20311;-71
2023/10/08 00:15:36;;;;;;;4.40;3.40;;;16.70;99.90;;;;;;5096584;28;20182;-72
2023/10/08 00:18:05;;;;;;;4.73;3.37;;;16.60;99.90;;;;;;5096374;28;20631;-71
2023/10/08 00:20:47;;;;;;;5.17;3.20;;;16.60;99.90;;;;;;5096286;28;20231;-71
2023/10/08 00:23:15;;;;;;;5.97;3.50;;;16.60;99.90;;;;;;5096498;28;20221;-71
2023/10/08 00:25:41;;;;;;;6.07;3.67;;;16.50;99.90;;;;;;5096486;28;20639;-71
2023/10/08 00:28:13;;;;;;;3.53;3.23;;;16.50;99.90;;;;;;5095829;28;20169;-71
2023/10/08 00:30:41;;;;;;;5.53;3.23;;;16.50;99.90;;;;;;5096226;28;20167;-71
2023/10/08 00:33:08;;;;;;;4.53;3.50;;;16.50;99.90;;;;;;5096318;28;20648;-71
2023/10/08 00:35:38;;;;;;;5.70;3.40;;;16.50;99.90;;;;;;5096344;28;20167;-71
2023/10/08 00:38:08;;;;;;;6.07;3.50;;;16.50;99.90;;;;;;5096152;28;20179;-72
2023/10/08 00:40:39;;;;;;;5.47;3.40;;;16.50;99.90;;;;;;5095715;28;20203;-71
2023/10/08 00:43:10;;;;;;;4.80;3.23;;;16.40;99.90;;;;;;5096065;28;20739;-71
2023/10/08 00:45:42;;;;;;;4.57;3.67;;;16.40;99.90;;;;;;5094898;28;20247;-71
2023/10/08 00:48:09;;;;;;;6.37;3.73;;;16.40;99.90;;;;;;5096024;28;20631;-72
2023/10/08 00:50:42;;;;;;;4.63;3.80;;;16.40;99.90;;;;;;5095808;28;20301;-71
2023/10/08 00:53:21;;;;;;;4.33;3.30;;;16.40;99.90;;;;;;5095407;28;20186;-70
2023/10/08 00:55:53;;;;;;;5.53;3.60;;;16.30;99.90;;;;;;5095818;28;20168;-71
2023/10/08 00:58:27;;;;;;;5.30;3.77;;;16.20;99.90;;;;;;5094421;28;20175;-71
2023/10/08 01:00:59;;;;;;;4.30;3.07;;;16.20;99.90;;;;;;5095770;28;20553;-71
2023/10/08 01:03:29;;;;;;;4.07;3.67;;;16.20;99.90;;;;;;5095820;28;20636;-71
2023/10/08 01:05:57;;;;;;;4.03;3.60;;;16.20;99.90;;;;;;5095639;28;20176;-71
2023/10/08 01:08:36;;;;;;;4.70;3.90;;;16.20;99.90;;;;;;5095542;28;20341;-71
2023/10/08 01:11:49;;;;;;;6.30;3.70;;;16.10;99.90;;;;;;5095338;28;20182;-71
2023/10/08 01:14:07;;;;;;;6.07;3.47;;;16.10;99.90;;;;;;5095036;28;20686;-71
2023/10/08 01:16:34;;;;;;;4.70;3.60;;;16.00;99.90;;;;;;5094318;28;20168;-71
2023/10/08 01:19:00;;;;;;;5.00;3.63;;;16.00;99.90;;;;;;5095306;28;20185;-70
2023/10/08 01:21:39;;;;;;;4.53;3.67;;;16.00;99.90;;;;;;5095071;28;20578;-70
2023/10/08 01:24:07;;;;;;;5.47;3.67;;;16.00;99.90;;;;;;5095166;28;20247;-71
2023/10/08 01:26:39;;;;;;;5.23;3.73;;;15.90;99.90;;;;;;5095239;28;20175;-71
2023/10/08 01:29:20;;;;;;;3.80;3.50;;;15.90;99.90;;;;;;5095140;28;20168;-72
2023/10/08 01:31:48;;;;;;;6.30;3.63;;;15.80;99.90;;;;;;5095097;28;20642;-71
2023/10/08 01:34:17;;;;;;;5.47;3.77;;;15.80;99.90;;;;;;5095100;28;20243;-72
2023/10/08 01:36:46;;;;;;;7.77;3.73;;;15.80;99.90;;;;;;5095111;28;20176;-72
2023/10/08 01:39:15;;;;;;;4.67;3.63;;;15.80;99.90;;;;;;5094630;28;20263;-72
2023/10/08 01:41:46;;;;;;;5.77;3.50;;;15.80;99.90;;;;;;5093510;28;20302;-72
2023/10/08 01:44:12;;;;;;;4.47;3.57;;;15.80;99.90;;;;;;5095040;28;20737;-72
2023/10/08 01:46:40;;;;;;;5.77;3.87;;;15.70;99.90;;;;;;5094793;28;20193;-72
2023/10/08 01:49:14;;;;;;;6.07;3.60;;;15.70;99.90;;;;;;5094646;28;20642;-72
2023/10/08 01:51:46;;;;;;;7.63;3.90;;;15.70;99.90;;;;;;5094876;28;20172;-72
2023/10/08 01:54:14;;;;;;;5.07;3.80;;;15.70;99.90;;;;;;5094465;28;20262;-72
2023/10/08 01:56:41;;;;;;;6.47;4.37;;;15.70;99.90;;;;;;5094651;28;20243;-70
2023/10/08 01:59:15;;;;;;;6.70;4.10;;;15.70;99.90;;;;;;5094530;28;20175;-72
2023/10/08 02:01:42;;;;;;;5.97;3.83;;;15.70;99.90;;;;;;5094475;28;20287;-70
2023/10/08 02:04:09;;;;;;;6.47;4.00;;;15.60;99.90;;;;;;5092570;28;20171;-71
2023/10/08 02:06:35;;;;;;;8.33;3.90;;;15.60;99.90;;;;;;5092992;28;20168;-72
2023/10/08 02:09:07;;;;;;;5.37;4.23;;;15.60;99.90;;;;;;5094011;28;20191;-71
2023/10/08 02:11:50;;;;;;;8.07;4.03;;;15.60;99.90;;;;;;5094719;28;20259;-72
2023/10/08 02:14:20;;;;;;;5.50;4.20;;;15.60;99.90;;;;;;5094383;28;20172;-71
2023/10/08 02:16:46;;;;;;;4.83;4.03;;;15.60;99.90;;;;;;5094247;28;20217;-71
2023/10/08 02:19:13;;;;;;;5.20;3.60;;;15.60;99.90;;;;;;5094261;28;20180;-70
2023/10/08 02:21:39;;;;;;;6.83;4.27;;;15.60;99.90;;;;;;5093720;28;20246;-71
2023/10/08 02:24:11;;;;;;;4.40;4.00;;;15.60;99.90;;;;;;5092441;28;20769;-71
2023/10/08 02:26:37;;;;;;;6.37;4.20;;;15.60;99.90;;;;;;5094157;28;20196;-71
2023/10/08 02:29:10;;;;;;;7.00;4.40;;;15.50;99.90;;;;;;5092621;28;20507;-70
2023/10/08 02:31:39;;;;;;;7.30;4.27;;;15.50;99.90;;;;;;5094045;28;20655;-70
2023/10/08 02:34:08;;;;;;;7.97;4.47;;;15.50;99.90;;;;;;5093943;28;20253;-70
2023/10/08 02:36:40;;;;;;;6.33;4.57;;;15.50;99.90;;;;;;5093296;28;20262;-72
2023/10/08 02:39:13;;;;;;;5.27;4.13;;;15.50;99.90;;;;;;5093832;28;20619;-72
2023/10/08 02:41:45;;;;;;;6.90;4.33;;;15.50;99.90;;;;;;5093889;28;20298;-70
2023/10/08 02:44:14;;;;;;;9.47;4.30;;;15.50;99.90;;;;;;5093791;28;20209;-70
2023/10/08 02:46:47;;;;;;;5.63;4.20;;;15.50;99.90;;;;;;5093840;28;20176;-72
2023/10/08 02:49:20;;;;;;;5.47;4.00;;;15.50;99.90;;;;;;5093495;28;20171;-72
2023/10/08 02:51:50;;;;;;;5.87;4.30;;;15.50;99.90;;;;;;5093629;28;20179;-72
2023/10/08 02:54:19;;;;;;;5.70;4.13;;;15.50;99.90;;;;;;5093789;28;20156;-72
2023/10/08 02:56:46;;;;;;;5.37;4.13;;;15.60;99.90;;;;;;5093697;28;20584;-72
2023/10/08 02:59:13;;;;;;;7.60;4.07;;;15.60;99.90;;;;;;5093394;28;20167;-71
2023/10/08 03:01:42;;;;;;;6.80;4.30;;;15.50;99.90;;;;;;5093516;28;20208;-71
2023/10/08 03:04:22;;;;;;;7.53;4.80;;;15.50;99.90;;;;;;5092187;28;20164;-72
2023/10/08 03:06:49;;;;;;;6.97;4.70;;;15.60;99.90;;;;;;5093450;28;20544;-71
2023/10/08 03:09:23;;;;;;;5.77;4.13;;;15.60;99.90;;;;;;5093227;28;20211;-72
2023/10/08 03:11:53;;;;;;;7.07;4.80;;;15.50;99.90;;;;;;5093463;28;20196;-71
2023/10/08 03:14:22;;;;;;;5.53;4.50;;;15.50;99.90;;;;;;5093235;28;20167;-71
2023/10/08 03:17:07;;;;;;;6.23;3.93;;;15.40;99.90;;;;;;5091828;28;20263;-71
2023/10/08 03:19:32;;;;;;;6.40;4.03;;;15.40;99.90;;;;;;5092698;28;20228;-70
2023/10/08 03:21:58;;;;;;;5.27;3.77;;;15.40;99.90;;;;;;5093083;28;20215;-70
2023/10/08 03:24:29;;;;;;;5.20;3.90;;;15.40;99.90;;;;;;5093363;28;20168;-71
2023/10/08 03:27:05;;;;;;;4.87;3.77;;;15.40;99.90;;;;;;5093356;28;20646;-71
2023/10/08 03:29:41;;;;;;;5.80;4.07;;;15.40;99.90;;;;;;5093215;28;20175;-71
2023/10/08 03:32:17;;;;;;;4.87;3.93;;;15.40;99.90;;;;;;5093336;28;20574;-71
2023/10/08 03:34:48;;;;;;;9.23;4.67;;;15.40;99.90;;;;;;5092698;28;20178;-71
2023/10/08 03:37:20;;;;;;;5.63;4.53;;;15.40;99.90;;;;;;5093178;28;20179;-71
2023/10/08 03:40:00;;;;;;;8.93;4.30;;;15.40;99.90;;;;;;5093106;28;20635;-71
2023/10/08 03:42:34;;;;;;;8.80;4.50;;;15.40;99.90;;;;;;5092802;28;20718;-70
2023/10/08 03:45:10;;;;;;;5.67;4.00;;;15.40;99.90;;;;;;5092910;28;20176;-70
2023/10/08 03:47:39;;;;;;;5.30;4.30;;;15.40;99.90;;;;;;5092811;28;20179;-70
2023/10/08 03:50:16;;;;;;;6.63;3.90;;;15.40;99.90;;;;;;5092405;28;20248;-71
2023/10/08 03:52:44;;;;;;;9.37;4.50;;;15.30;99.90;;;;;;5093155;28;20717;-71
2023/10/08 03:57:48;;;;;;;6.80;4.17;;;15.30;99.90;;;;;;5092842;28;20168;-71
2023/10/08 04:00:18;;;;;;;4.43;3.80;;;15.20;99.90;;;;;;5092753;28;20671;-71
2023/10/08 04:02:54;;;;;;;8.17;4.20;;;15.30;99.90;;;;;;5092670;28;20175;-71
2023/10/08 04:05:27;;;;;;;5.37;3.93;;;15.20;99.90;;;;;;5092540;28;20228;-71
2023/10/08 04:13:01;;;;;;;7.20;4.80;;;15.30;99.90;;;;;;5092646;28;20643;-70
2023/10/08 04:15:27;;;;;;;8.60;4.63;;;15.30;99.90;;;;;;5091589;28;20175;-70
2023/10/08 04:17:52;;;;;;;6.20;4.63;;;15.30;99.90;;;;;;5092315;28;20572;-70
2023/10/08 04:20:35;;;;;;;7.83;4.47;;;15.30;99.90;;;;;;5092233;28;20216;-70
2023/10/08 04:23:04;;;;;;;6.13;4.60;;;15.30;99.90;;;;;;5092372;28;20297;-70
2023/10/08 04:25:31;;;;;;;6.50;4.80;;;15.30;99.90;;;;;;5091330;28;20232;-70
2023/10/08 04:27:58;;;;;;;5.77;4.33;;;15.20;99.90;;;;;;5092064;28;20642;-71
2023/10/08 04:30:33;;;;;;;7.70;4.80;;;15.20;99.90;;;;;;5096593;28;20255;-71
2023/10/08 04:33:06;;;;;;;8.03;4.97;;;15.10;99.90;;;;;;5095801;28;20170;-70
2023/10/08 04:35:48;;;;;;;7.73;4.73;;;15.10;99.90;;;;;;5096205;28;20187;-70
2023/10/08 04:38:25;;;;;;;7.60;4.80;;;15.10;99.90;;;;;;5096268;28;20160;-72
2023/10/08 04:40:51;;;;;;;5.87;4.90;;;15.10;99.90;;;;;;5095693;28;20557;-71
2023/10/08 04:43:30;;;;;;;7.97;6.13;;;15.10;99.90;;;;;;5096004;28;20180;-71
2023/10/08 04:46:04;;;;;;;7.73;5.80;;;15.10;99.90;;;;;;5095760;28;20171;-71
2023/10/08 04:48:32;;;;;;;7.53;6.07;;;15.10;99.90;;;;;;5095420;28;20181;-71
2023/10/08 04:50:59;;;;;;;7.33;5.23;;;15.20;99.90;;;;;;5095946;28;20269;-71
2023/10/08 04:53:32;;;;;;;10.13;5.90;;;15.10;99.90;;;;;;5095635;28;20254;-71
2023/10/08 04:56:14;;;;;;;8.73;5.73;;;15.10;99.90;;;;;;5095852;28;20179;-71
2023/10/08 04:58:47;;;;;;;9.00;5.70;;;15.00;99.90;;;;;;5095521;28;20628;-71
2023/10/08 05:01:17;;;;;;;11.57;8.23;;;15.00;99.90;;;;;;5095665;28;20207;-71
2023/10/08 05:09:22;;;;;;;12.13;6.70;;;15.00;99.90;;;;;;5095617;28;20240;-71
2023/10/08 05:17:09;;;;;;;8.17;5.03;;;15.00;99.90;;;;;;5095157;28;20246;-70
2023/10/08 05:27:56;;;;;;;6.73;4.77;;;15.00;99.90;;;;;;5095379;28;20170;-70
2023/10/08 05:30:41;;;;;;;7.10;5.00;;;15.10;99.90;;;;;;5094831;28;20627;-70
2023/10/08 05:33:24;;;;;;;11.30;4.90;;;15.10;99.90;;;;;;5093922;28;20179;-70
2023/10/08 05:36:02;;;;;;;7.77;4.87;;;15.00;99.90;;;;;;5094866;28;20704;-71
2023/10/08 05:49:01;;;;;;;10.77;5.30;;;15.10;99.90;;;;;;5094911;28;20702;-71
2023/10/08 05:51:56;;;;;;;9.70;4.90;;;15.10;99.90;;;;;;5093399;28;20541;-70
2023/10/08 06:00:17;;;;;;;7.33;4.63;;;15.20;99.90;;;;;;5093927;28;20164;-71
2023/10/08 06:07:56;;;;;;;7.03;5.07;;;15.20;99.90;;;;;;5094233;28;20249;-71
2023/10/08 06:13:13;;;;;;;8.13;4.90;;;15.30;99.90;;;;;;5094316;28;20175;-72
2023/10/08 06:18:29;;;;;;;8.17;4.73;;;15.40;99.90;;;;;;5094009;28;20225;-71
2023/10/08 06:20:59;;;;;;;11.27;4.87;;;15.40;99.90;;;;;;5093808;28;20216;-72
2023/10/08 06:23:28;;;;;;;8.50;4.63;;;15.50;99.90;;;;;;5094012;28;20164;-71
2023/10/08 06:25:56;;;;;;;8.83;4.90;;;15.50;99.90;;;;;;5093393;28;20172;-71
2023/10/08 06:28:25;;;;;;;8.93;5.10;;;15.60;99.90;;;;;;5093626;28;20175;-71
2023/10/08 06:30:56;;;;;;;7.33;4.80;;;15.70;99.90;;;;;;5092878;28;20176;-72
2023/10/08 06:33:25;;;;;;;5.10;4.17;;;15.80;99.90;;;;;;5094052;28;20202;-71
2023/10/08 06:36:02;;;;;;;5.77;4.70;;;15.90;99.90;;;;;;5093866;28;20259;-71
2023/10/08 06:38:30;;;;;;;7.27;4.80;;;16.00;99.90;;;;;;5093621;28;20164;-72
2023/10/08 06:41:00;;;;;;;7.83;4.57;;;16.10;99.90;;;;;;5093379;28;20208;-73
2023/10/08 06:43:26;;;;;;;7.93;4.83;;;16.40;99.90;;;;;;5093562;28;20179;-73
2023/10/08 06:45:52;;;;;;;5.93;4.80;;;16.70;99.90;;;;;;5093746;28;20179;-72
2023/10/08 06:48:23;;;;;;;6.40;4.43;;;16.90;99.90;;;;;;5093483;28;20261;-72
2023/10/08 06:50:50;;;;;;;5.77;4.40;;;17.00;99.90;;;;;;5092506;28;20172;-72
2023/10/08 06:53:21;;;;;;;8.88;5.13;;;17.20;99.90;;;;;;5093613;28;20182;-73
2023/10/08 06:55:56;;;;;;;9.37;4.90;;;17.30;99.90;;;;;;5093579;28;20241;-73
2023/10/08 06:58:25;;;;;;;6.57;4.68;;;17.50;99.90;;;;;;5092862;28;20163;-73
2023/10/08 07:00:52;;;;;;;5.95;4.90;;;17.80;99.90;;;;;;5093521;28;20239;-72
2023/10/08 07:03:17;;;;;;;8.13;4.80;;;18.00;99.90;;;;;;5093345;28;20211;-72
2023/10/08 07:05:54;;;;;;;8.57;5.10;;;18.30;99.90;;;;;;5093238;28;20631;-73
2023/10/08 07:08:24;;;;;;;6.63;4.60;;;18.60;99.90;;;;;;5093122;28;20189;-72
2023/10/08 07:10:51;;;;;;;10.50;5.30;;;18.90;99.90;;;;;;5093286;28;20182;-72
2023/10/08 07:13:21;;;;;;;6.60;4.35;;;19.30;99.90;;;;;;5093016;28;20164;-72
2023/10/08 07:15:55;;;;;;;6.15;4.53;;;19.80;99.90;;;;;;5093463;28;20297;-72
2023/10/08 07:18:27;;;;;;;6.47;4.90;;;19.90;99.90;;;;;;5093196;28;20159;-71
2023/10/08 07:20:54;;;;;;;5.93;4.55;;;20.20;99.90;;;;;;5093000;28;20236;-72
2023/10/08 07:23:29;;;;;;;8.07;4.45;;;20.40;99.90;;;;;;5092829;28;20187;-73
2023/10/08 07:26:10;;;;;;;6.38;4.88;;;21.40;99.90;;;;;;5092984;28;20232;-74
2023/10/08 07:28:42;;;;;;;5.60;4.85;;;21.50;99.90;;;;;;5092254;28;20171;-72
2023/10/08 07:31:22;;;;;;;5.10;4.30;;;20.90;99.90;;;;;;5093239;28;20172;-72
2023/10/08 07:34:16;;;;;;;7.93;4.60;;;20.40;99.90;;;;;;5093170;28;20174;-71
2023/10/08 07:36:40;;;;;;;8.63;4.97;;;19.90;99.90;;;;;;5092014;28;20275;-72
2023/10/08 07:39:08;;;;;;;6.70;4.72;;;19.60;99.90;;;;;;5092835;28;20264;-71
2023/10/08 07:41:34;;;;;;;5.18;4.53;;;19.80;99.90;;;;;;5092186;28;20200;-72
2023/10/08 07:44:00;;;;;;;6.57;4.60;;;20.20;99.90;;;;;;5093002;28;20179;-72
2023/10/08 07:46:26;;;;;;;5.22;4.68;;;20.60;99.90;;;;;;5093139;28;20249;-72
2023/10/08 07:48:55;;;;;;;7.47;4.85;;;21.40;99.90;;;;;;5092268;28;20278;-72
2023/10/08 07:51:23;;;;;;;6.35;4.50;;;21.70;99.90;;;;;;5092624;28;20164;-72
2023/10/08 07:53:54;;;;;;;6.15;4.32;;;22.40;99.70;;;;;;5092845;28;20168;-74
2023/10/08 07:56:20;;;;;;;5.20;4.53;;;22.80;99.00;;;;;;5092644;28;20186;-73
2023/10/08 07:58:47;;;;;;;5.15;4.45;;;22.70;98.20;;;;;;5092393;28;20254;-74
2023/10/08 08:01:14;;;;;;;7.32;4.68;;;22.70;98.30;;;;;;5092544;28;20295;-74
2023/10/08 08:03:41;;;;;;;5.45;4.95;;;23.00;98.10;;;;;;5092871;28;20501;-73
2023/10/08 08:06:09;;;;;;;6.70;4.53;;;22.80;97.90;;;;;;5096412;28;20176;-74
2023/10/08 08:08:36;;;;;;;6.95;5.03;;;23.30;97.60;;;;;;5096599;28;20184;-73
2023/10/08 08:11:12;;;;;;;7.38;4.90;;;23.90;96.70;;;;;;5095971;28;20164;-74
2023/10/08 08:13:44;;;;;;;7.00;5.15;;;24.40;95.80;;;;;;5096539;28;20170;-74
2023/10/08 08:16:17;;;;;;;7.88;5.30;;;24.30;95.70;;;;;;5096429;28;20214;-73
2023/10/08 08:18:56;;;;;;;6.85;4.60;;;24.10;95.60;;;;;;5096127;28;20172;-74
2023/10/08 08:21:23;;;;;;;8.68;5.03;;;24.00;95.70;;;;;;5095822;28;20226;-73
2023/10/08 08:23:49;;;;;;;8.32;5.15;;;24.40;95.20;;;;;;5096311;28;20172;-74
2023/10/08 08:26:29;;;;;;;7.40;5.57;;;25.20;95.00;;;;;;5095539;28;20217;-74
2023/10/08 08:29:00;;;;;;;8.00;4.75;;;25.60;93.70;;;;;;5096242;28;20163;-74
2023/10/08 08:31:27;;;;;;;7.18;5.10;;;26.80;92.20;;;;;;5095139;28;20312;-74
2023/10/08 08:33:53;;;;;;;10.80;5.30;;;27.10;90.80;;;;;;5096107;28;20179;-74
2023/10/08 08:36:20;;;;;;;7.63;4.78;;;27.00;90.60;;;;;;5095729;28;20172;-74
2023/10/08 08:38:47;;;;;;;7.90;5.25;;;27.00;90.80;;;;;;5095297;28;20221;-73
2023/10/08 08:41:16;;;;;;;7.72;5.03;;;27.00;90.30;;;;;;5094940;28;20212;-74
2023/10/08 08:43:44;;;;;;;7.63;5.35;;;27.60;89.60;;;;;;5095924;28;20183;-74
2023/10/08 08:46:12;;;;;;;7.95;5.15;;;27.20;90.00;;;;;;5095903;28;20187;-72
2023/10/08 08:48:41;;;;;;;7.85;5.28;;;27.30;89.90;;;;;;5094247;28;20571;-73
2023/10/08 08:51:07;;;;;;;5.65;5.03;;;27.80;88.50;;;;;;5095477;28;20175;-72
2023/10/08 08:53:36;;;;;;;8.15;4.90;;;27.80;88.30;;;;;;5094118;28;20172;-74
2023/10/08 08:56:06;;;;;;;8.35;5.60;;;27.90;88.30;;;;;;5095331;28;20654;-74
2023/10/08 08:58:33;;;;;;;7.93;5.78;;;27.70;88.50;;;;;;5095209;28;20179;-73
2023/10/08 09:01:00;;;;;;;8.95;5.82;;;26.90;90.00;;;;;;5095407;28;20191;-73
2023/10/08 09:03:30;;;;;;;9.93;5.80;;;26.70;90.10;;;;;;5095543;28;20180;-72
2023/10/08 09:05:59;;;;;;;8.88;5.97;;;27.10;90.00;;;;;;5095279;28;20172;-75
2023/10/08 09:08:33;;;;;;;10.15;5.90;;;27.50;89.70;;;;;;5094719;28;20675;-74
2023/10/08 09:11:04;;;;;;;10.40;5.63;;;28.70;86.80;;;;;;5095198;28;20168;-74
2023/10/08 09:13:31;;;;;;;9.48;6.00;;;29.00;84.40;;;;;;5095259;28;20267;-74
2023/10/08 09:16:11;;;;;;;10.35;5.97;;;28.90;84.80;;;;;;5095127;28;20191;-74
2023/10/08 09:18:36;;;;;;;9.20;6.50;;;28.10;86.50;;;;;;5094895;28;20180;-74
2023/10/08 09:21:10;;;;;;;8.80;6.05;;;28.20;86.30;;;;;;5094694;28;20234;-74
2023/10/08 09:23:43;;;;;;;9.82;6.05;;;27.60;87.60;;;;;;5094636;28;20193;-73
2023/10/08 09:26:13;;;;;;;7.80;5.93;;;27.20;89.80;;;;;;5095118;28;20179;-73
2023/10/08 09:28:40;;;;;;;9.45;6.20;;;27.10;90.00;;;;;;5094369;28;20168;-72
2023/10/08 09:31:11;;;;;;;10.68;6.60;;;26.70;90.50;;;;;;5094993;28;20176;-72
2023/10/08 09:33:37;;;;;;;8.05;6.15;;;26.60;90.50;;;;;;5094920;28;20324;-72
2023/10/08 09:36:07;;;;;;;9.30;6.45;;;26.50;90.80;;;;;;5095175;28;20671;-74
2023/10/08 09:38:36;;;;;;;10.90;6.32;;;26.60;91.30;;;;;;5093951;28;20172;-74
2023/10/08 09:41:03;;;;;;;9.80;7.18;;;27.00;90.80;;;;;;5094657;28;20352;-73
2023/10/08 09:43:30;;;;;;;10.55;6.75;;;27.20;90.60;;;;;;5094842;28;20168;-73
2023/10/08 09:46:13;;;;;;;12.02;6.63;;;27.60;90.10;;;;;;5094584;28;20168;-73
2023/10/08 09:48:41;;;;;;;7.13;5.85;;;28.20;89.50;;;;;;5093719;28;20160;-74
2023/10/08 09:51:10;;;;;;;10.52;6.00;;;28.60;87.70;;;;;;5094616;28;20178;-73
2023/10/08 09:53:58;;;;;;;10.48;6.18;;;28.50;87.40;;;;;;5093952;28;20530;-76
2023/10/08 09:56:28;;;;;;;9.43;5.97;;;29.30;86.60;;;;;;5094346;28;20178;-75
2023/10/08 09:58:54;;;;;;;9.43;5.95;;;29.90;85.40;;;;;;5094139;28;20248;-76
2023/10/08 10:01:22;;;;;;;11.32;6.60;;;29.90;84.20;;;;;;5094149;28;20631;-76
2023/10/08 10:03:49;;;;;;;9.35;6.40;;;30.30;82.80;;;;;;5094574;28;20640;-74
2023/10/08 10:06:17;;;;;;;9.90;6.75;;;30.70;81.50;;;;;;5093948;28;20203;-76
2023/10/08 10:08:43;;;;;;;8.00;6.28;;;30.60;81.00;;;;;;5093840;28;20188;-74
2023/10/08 10:11:10;;;;;;;7.82;6.70;;;30.40;80.40;;;;;;5093723;28;20172;-75
2023/10/08 10:13:47;;;;;;;9.77;6.35;;;29.50;83.00;;;;;;5094202;28;20168;-74
2023/10/08 10:16:17;;;;;;;10.55;6.40;;;30.30;83.20;;;;;;5093513;28;20191;-74
2023/10/08 10:18:46;;;;;;;12.10;6.50;;;30.30;81.30;;;;;;5093795;28;20250;-74
2023/10/08 10:21:12;;;;;;;9.30;6.70;;;30.50;81.30;;;;;;5092756;28;20228;-74
2023/10/08 10:23:45;;;;;;;11.20;6.60;;;31.00;80.60;;;;;;5093830;28;20220;-74
2023/10/08 10:26:30;;;;;;;8.35;6.35;;;31.00;80.10;;;;;;5093479;28;20255;-74
2023/10/08 10:29:10;;;;;;;8.77;6.22;;;30.80;80.40;;;;;;5092396;28;20180;-74
2023/10/08 10:31:44;;;;;;;11.48;6.40;;;30.50;80.70;;;;;;5093669;28;20167;-74
2023/10/08 10:34:12;;;;;;;9.82;6.68;;;31.00;80.40;;;;;;5094080;28;20623;-74
2023/10/08 10:36:39;;;;;;;10.52;6.47;;;30.30;80.60;;;;;;5093223;28;20179;-74
2023/10/08 10:40:12;;;;;;;10.60;6.72;;;29.60;82.20;;;;;;5093388;28;20262;-75
2023/10/08 10:42:06;;;;;;;8.65;6.70;;;29.30;83.10;;;;;;5084263;28;20255;-74
2023/10/08 10:44:36;;;;;;;11.15;6.70;;;29.80;83.60;;;;;;5093696;28;20164;-74
2023/10/08 10:52:31;;;;;;;9.48;5.90;;;29.30;83.50;;;;;;5093711;28;20202;-74
2023/10/08 10:55:17;;;;;;;11.52;6.72;;;29.70;83.60;;;;;;5093651;28;20263;-74
2023/10/08 10:57:54;;;;;;;10.63;6.18;;;30.00;82.40;;;;;;5093266;28;20259;-74
2023/10/08 11:03:23;;;;;;;7.82;6.50;;;29.80;82.70;;;;;;5093113;28;20168;-74
2023/10/08 11:05:51;;;;;;;8.98;6.00;;;28.70;85.40;;;;;;5092570;28;20270;-74
2023/10/08 11:08:22;;;;;;;9.23;6.32;;;29.20;85.90;;;;;;5092910;28;20192;-75
2023/10/08 11:10:51;;;;;;;10.40;6.32;;;29.30;85.00;;;;;;5093319;28;20199;-75
2023/10/08 11:13:19;;;;;;;8.50;6.05;;;29.50;84.50;;;;;;5093004;28;20203;-74
2023/10/08 11:15:49;;;;;;;8.45;5.68;;;30.30;82.20;;;;;;5093050;28;20187;-74
2023/10/08 11:18:16;;;;;;;9.30;5.93;;;30.80;81.50;;;;;;5092811;28;20203;-74
2023/10/08 11:20:44;;;;;;;9.02;6.30;;;30.90;81.40;;;;;;5092351;28;20257;-75
2023/10/08 11:23:33;;;;;;;9.50;6.38;;;30.60;81.40;;;;;;5092632;28;20178;-73
2023/10/08 11:26:04;;;;;;;8.63;6.43;;;29.90;82.20;;;;;;5093053;28;20175;-73
2023/10/08 11:28:41;;;;;;;12.27;6.13;;;28.60;85.20;;;;;;5092289;28;20172;-74
2023/10/08 11:31:10;;;;;;;10.13;6.28;;;28.60;87.30;;;;;;5092871;28;20168;-74
2023/10/08 11:33:38;;;;;;;10.52;6.22;;;28.70;86.40;;;;;;5092441;28;20182;-73
2023/10/08 11:36:07;;;;;;;10.43;6.18;;;28.80;86.50;;;;;;5092759;28;20164;-74
2023/10/08 11:38:41;;;;;;;7.30;5.93;;;28.70;86.10;;;;;;5096541;28;20171;-74
2023/10/08 11:41:13;;;;;;;9.32;6.25;;;28.80;86.80;;;;;;5096992;28;20294;-74
2023/10/08 11:43:39;;;;;;;9.63;6.18;;;28.00;86.90;;;;;;5096618;28;20639;-73
2023/10/08 11:46:05;;;;;;;9.77;6.25;;;27.50;89.70;;;;;;5096777;28;20171;-73
2023/10/08 11:48:38;;;;;;;12.27;6.90;;;27.80;90.10;;;;;;5096620;28;20250;-73
2023/10/08 11:51:05;;;;;;;11.75;6.65;;;27.80;88.30;;;;;;5097019;28;20296;-73
2023/10/08 11:53:31;;;;;;;8.48;6.53;;;27.30;90.00;;;;;;5096588;28;20194;-73
2023/10/08 11:55:57;;;;;;;11.18;6.43;;;27.10;90.90;;;;;;5096752;28;20168;-73
2023/10/08 11:58:37;;;;;;;11.93;7.15;;;26.50;91.40;;;;;;5096126;28;20175;-73
2023/10/08 12:01:03;;;;;;;11.10;6.65;;;26.60;91.70;;;;;;5096382;28;20192;-72
2023/10/08 12:03:29;;;;;;;11.07;6.35;;;26.50;91.60;;;;;;5096332;28;20180;-74
2023/10/08 12:05:59;;;;;;;9.68;6.40;;;26.30;92.10;;;;;;5095880;28;20524;-73
2023/10/08 12:08:27;;;;;;;10.65;6.05;;;26.60;91.80;;;;;;5096519;28;20207;-72
2023/10/08 12:10:55;;;;;;;9.48;5.97;;;26.80;91.60;;;;;;5096386;28;20176;-73
2023/10/08 12:13:24;;;;;;;9.10;6.10;;;26.70;91.20;;;;;;5096800;28;20233;-72
2023/10/08 12:16:06;;;;;;;9.82;5.97;;;26.90;91.20;;;;;;5096314;28;20179;-73
2023/10/08 12:18:42;;;;;;;8.73;5.63;;;26.30;91.80;;;;;;5095703;28;20673;-72
2023/10/08 12:21:10;;;;;;;8.88;5.65;;;25.70;92.70;;;;;;5095713;28;20230;-72
2023/10/08 12:23:37;;;;;;;11.18;6.38;;;25.70;92.70;;;;;;5096014;28;20172;-71
2023/10/08 12:26:03;;;;;;;10.00;6.18;;;25.60;92.90;;;;;;5095894;28;20226;-71
2023/10/08 12:28:29;;;;;;;9.52;6.35;;;25.60;92.90;;;;;;5095833;28;20650;-72
2023/10/08 12:30:56;;;;;;;10.20;6.70;;;25.50;93.70;;;;;;5095787;28;20169;-71
2023/10/08 12:33:25;;;;;;;10.77;6.40;;;25.50;93.30;;;;;;5096251;28;20179;-71
2023/10/08 12:35:55;;;;;;;12.95;6.60;;;25.30;93.40;;;;;;5095569;28;20214;-71
2023/10/08 12:38:22;;;;;;;8.77;6.50;;;25.20;93.90;;;;;;5095617;28;20172;-71
2023/10/08 12:40:54;;;;;;;7.90;6.50;;;25.20;93.70;;;;;;5095666;28;20215;-72
2023/10/08 12:43:27;;;;;;;10.77;6.13;;;25.00;94.40;;;;;;5096110;28;20195;-73
2023/10/08 12:45:53;;;;;;;8.48;5.88;;;25.20;94.00;;;;;;5095570;28;20588;-71
2023/10/08 12:48:27;;;;;;;9.57;6.30;;;25.10;94.20;;;;;;5094327;28;20164;-72
2023/10/08 12:50:56;;;;;;;9.68;6.10;;;24.90;94.50;;;;;;5095216;28;20164;-71
2023/10/08 12:53:38;;;;;;;8.65;6.13;;;24.90;94.70;;;;;;5095387;28;20646;-72
2023/10/08 12:56:14;;;;;;;14.70;6.32;;;25.00;94.70;;;;;;5095729;28;20623;-72
2023/10/08 12:58:44;;;;;;;10.57;6.32;;;25.30;94.20;;;;;;5095357;28;20212;-73
2023/10/08 13:01:11;;;;;;;10.88;6.15;;;25.70;93.90;;;;;;5094947;28;20630;-72
2023/10/08 13:03:47;;;;;;;8.20;5.72;;;25.60;93.30;;;;;;5095009;28;20175;-71
2023/10/08 13:06:28;;;;;;;8.65;5.80;;;25.60;93.10;;;;;;5095206;28;20258;-72
2023/10/08 13:08:57;;;;;;;13.32;6.47;;;25.20;93.20;;;;;;5095052;28;20708;-72
2023/10/08 13:11:25;;;;;;;10.45;6.07;;;25.40;93.60;;;;;;5095358;28;20184;-72
2023/10/08 13:13:52;;;;;;;8.63;5.82;;;25.40;92.90;;;;;;5095160;28;20164;-72
2023/10/08 13:16:21;;;;;;;8.38;5.68;;;25.60;93.10;;;;;;5094667;28;20172;-72
2023/10/08 13:18:50;;;;;;;9.27;5.97;;;25.70;93.40;;;;;;5094677;28;20187;-72
2023/10/08 13:21:18;;;;;;;10.45;6.28;;;25.70;93.70;;;;;;5094924;28;20311;-73
2023/10/08 13:23:44;;;;;;;10.55;6.45;;;25.30;93.70;;;;;;5095321;28;20168;-72
2023/10/08 13:26:16;;;;;;;9.98;6.70;;;25.20;94.00;;;;;;5094596;28;20167;-73
2023/10/08 13:28:43;;;;;;;9.30;6.40;;;25.30;94.50;;;;;;5094772;28;20183;-74
2023/10/08 13:31:11;;;;;;;9.18;5.85;;;25.30;94.00;;;;;;5094651;28;20175;-72
2023/10/08 13:33:48;;;;;;;10.25;6.32;;;25.20;93.90;;;;;;5094720;28;20171;-73
2023/10/08 13:36:14;;;;;;;13.30;6.30;;;25.40;93.50;;;;;;5095260;28;20301;-73
2023/10/08 13:38:41;;;;;;;10.90;6.00;;;25.10;93.80;;;;;;5094281;28;20164;-73
2023/10/08 13:41:18;;;;;;;7.70;5.78;;;25.10;93.60;;;;;;5094657;28;20208;-73
2023/10/08 13:44:01;;;;;;;10.40;6.15;;;24.90;93.70;;;;;;5094364;28;20156;-72
2023/10/08 13:46:27;;;;;;;9.65;5.70;;;25.00;93.60;;;;;;5093337;28;20195;-73
2023/10/08 13:48:53;;;;;;;8.88;5.95;;;25.00;93.50;;;;;;5094307;28;20240;-74
2023/10/08 13:51:25;;;;;;;10.07;5.93;;;24.90;93.60;;;;;;5094696;28;20183;-73
2023/10/08 13:53:59;;;;;;;7.05;5.80;;;24.70;93.90;;;;;;5094506;28;20639;-74
2023/10/08 13:56:26;;;;;;;14.32;6.30;;;24.60;94.30;;;;;;5094610;28;20179;-73
2023/10/08 13:58:57;;;;;;;9.32;6.32;;;24.40;94.20;;;;;;5093882;28;20176;-72
2023/10/08 14:01:25;;;;;;;8.70;6.47;;;24.30;94.60;;;;;;5093032;28;20290;-74
2023/10/08 14:03:53;;;;;;;9.30;6.20;;;24.20;95.10;;;;;;5094345;28;20183;-72
2023/10/08 14:06:20;;;;;;;11.07;7.90;;;24.30;95.20;;;;;;5094176;28;20167;-73